| time (UTC) | temp F | wind direction | speed MPH | gust MPH | rain 1hr in | rain 24hr in | rain mn in | humidity % | barometer mb |
| 20260906161329 | 88 | 178 | 3.0 | 5.0 | 0.00 | 0.00 | 0.00 | 33 | 1023.9 |
| 20260906160342 | 87 | 68 | 2.0 | 6.0 | 0.00 | 0.00 | 0.00 | 35 | 1024.1 |
| 20260906155332 | 85 | 74 | 2.0 | 7.0 | 0.00 | 0.00 | 0.00 | 38 | 1024.0 |
| 20260906154354 | 84 | 49 | 3.0 | 7.0 | 0.00 | 0.00 | 0.00 | 40 | 1024.0 |
| 20260906153351 | 83 | 57 | 6.0 | 10.0 | 0.00 | 0.00 | 0.00 | 41 | 1024.1 |
| 20260906152407 | 84 | 65 | 4.0 | 9.0 | 0.00 | 0.00 | 0.00 | 41 | 1024.1 |
| 20260906151341 | 83 | 229 | 5.0 | 9.0 | 0.00 | 0.00 | 0.00 | 41 | 1024.3 |
| 20260906150331 | 81 | 223 | 4.0 | 9.0 | 0.00 | 0.00 | 0.00 | 43 | 1024.2 |
| 20260906145329 | 81 | 229 | 7.0 | 8.0 | 0.00 | 0.00 | 0.00 | 43 | 1024.2 |
| 20260906144350 | 80 | 192 | 5.0 | 8.0 | 0.00 | 0.00 | 0.00 | 44 | 1024.2 |
| 20260906143347 | 80 | 200 | 5.0 | 8.0 | 0.00 | 0.00 | 0.00 | 45 | 1024.2 |
| 20260906142406 | 79 | 197 | 4.0 | 5.0 | 0.00 | 0.00 | 0.00 | 48 | 1024.3 |
| 20260906141339 | 78 | 159 | 1.0 | 3.0 | 0.00 | 0.00 | 0.00 | 52 | 1024.2 |
| 20260906140335 | 77 | 159 | 2.0 | 5.0 | 0.00 | 0.00 | 0.00 | 52 | 1024.1 |
| 20260906135328 | 77 | 105 | 2.0 | 4.0 | 0.00 | 0.00 | 0.00 | 53 | 1024.1 |
| 20260906134348 | 77 | 77 | 1.0 | 3.0 | 0.00 | 0.00 | 0.00 | 52 | 1023.9 |
| 20260906133339 | 77 | 77 | 2.0 | 4.0 | 0.00 | 0.00 | 0.00 | 52 | 1023.8 |
| 20260906132329 | 77 | 115 | 3.0 | 6.0 | 0.00 | 0.00 | 0.00 | 52 | 1023.5 |
| 20260906131330 | 78 | 100 | 2.0 | 4.0 | 0.00 | 0.00 | 0.00 | 50 | 1023.6 |
| 20260906130342 | 78 | 100 | 3.0 | 7.0 | 0.00 | 0.00 | 0.00 | 50 | 1023.5 |
| 20260906125335 | 78 | 87 | 5.0 | 8.0 | 0.00 | 0.00 | 0.00 | 50 | 1023.4 |
| 20260906124337 | 78 | 110 | 5.0 | 7.0 | 0.00 | 0.00 | 0.00 | 49 | 1023.4 |
| 20260906123332 | 79 | 131 | 7.0 | 12.0 | 0.00 | 0.00 | 0.00 | 47 | 1023.4 |
| 20260906122344 | 79 | 222 | 7.0 | 11.0 | 0.00 | 0.00 | 0.00 | 46 | 1023.2 |
| 20260906121359 | 78 | 213 | 9.0 | 12.0 | 0.00 | 0.00 | 0.00 | 47 | 1023.2 |
| 20260906120330 | 78 | 215 | 7.0 | 11.0 | 0.00 | 0.00 | 0.00 | 46 | 1023.1 |
| 20260906115343 | 79 | 203 | 9.0 | 13.0 | 0.00 | 0.00 | 0.00 | 46 | 1023.1 |
| 20260906114340 | 78 | 200 | 8.0 | 11.0 | 0.00 | 0.00 | 0.00 | 47 | 1023.1 |
| 20260906113334 | 78 | 215 | 7.0 | 10.0 | 0.00 | 0.00 | 0.00 | 47 | 1023.0 |
| 20260906112348 | 78 | 192 | 5.0 | 10.0 | 0.00 | 0.00 | 0.00 | 48 | 1023.0 |
| 20260906111404 | 78 | 180 | 6.0 | 9.0 | 0.00 | 0.00 | 0.00 | 48 | 1023.0 |
| 20260906110334 | 79 | 140 | 1.0 | 7.0 | 0.00 | 0.00 | 0.00 | 48 | 1022.8 |
| 20260906105348 | 78 | 117 | 1.0 | 6.0 | 0.00 | 0.00 | 0.00 | 49 | 1022.8 |
| 20260906104342 | 78 | 133 | 4.0 | 8.0 | 0.00 | 0.00 | 0.00 | 48 | 1022.8 |
| 20260906103337 | 79 | 196 | 5.0 | 8.0 | 0.00 | 0.00 | 0.00 | 48 | 1022.7 |
| 20260906102329 | 78 | 186 | 5.0 | 10.0 | 0.00 | 0.00 | 0.00 | 48 | 1022.7 |
| 20260906101350 | 79 | 205 | 6.0 | 10.0 | 0.00 | 0.00 | 0.00 | 48 | 1022.6 |
| 20260906100341 | 79 | 205 | 7.0 | 10.0 | 0.00 | 0.00 | 0.00 | 48 | 1022.6 |
| 20260906095334 | 79 | 208 | 6.0 | 9.0 | 0.00 | 0.00 | 0.00 | 48 | 1022.6 |
| 20260906094351 | 79 | 195 | 6.0 | 10.0 | 0.00 | 0.00 | 0.00 | 49 | 1022.5 |
| 20260906093349 | 79 | 215 | 7.0 | 9.0 | 0.00 | 0.00 | 0.00 | 49 | 1022.6 |
| 20260906092341 | 79 | 219 | 6.0 | 8.0 | 0.00 | 0.00 | 0.00 | 49 | 1022.6 |
| 20260906091334 | 79 | 222 | 5.0 | 9.0 | 0.00 | 0.00 | 0.00 | 48 | 1022.4 |
| 20260906090342 | 79 | 210 | 6.0 | 8.0 | 0.00 | 0.00 | 0.00 | 49 | 1022.6 |
| 20260906085334 | 80 | 202 | 7.0 | 10.0 | 0.00 | 0.00 | 0.00 | 48 | 1022.5 |
| 20260906084356 | 81 | 234 | 8.0 | 12.0 | 0.00 | 0.00 | 0.00 | 47 | 1022.5 |
| 20260906083329 | 80 | 241 | 7.0 | 10.0 | 0.00 | 0.00 | 0.00 | 47 | 1022.5 |
| 20260906082406 | 81 | 223 | 5.0 | 9.0 | 0.00 | 0.00 | 0.00 | 47 | 1022.6 |
| 20260906081338 | 81 | 229 | 5.0 | 8.0 | 0.00 | 0.00 | 0.00 | 46 | 1022.6 |
| 20260906080331 | 81 | 214 | 5.0 | 9.0 | 0.00 | 0.00 | 0.00 | 46 | 1022.9 |
| 20260906075347 | 81 | 237 | 4.0 | 6.0 | 0.00 | 0.00 | 0.00 | 47 | 1023.0 |
| 20260906074343 | 81 | 184 | 4.0 | 7.0 | 0.00 | 0.00 | 0.00 | 46 | 1023.1 |
| 20260906073339 | 81 | 189 | 3.0 | 7.0 | 0.00 | 0.00 | 0.00 | 45 | 1023.1 |
| 20260906072331 | 82 | 181 | 5.0 | 6.0 | 0.00 | 0.00 | 0.00 | 45 | 1023.1 |
| 20260906071342 | 82 | 170 | 4.0 | 6.0 | 0.00 | 0.00 | 0.00 | 45 | 1023.2 |
| 20260906070415 | 81 | 166 | 3.0 | 6.0 | 0.00 | 0.00 | 0.00 | 45 | 1023.3 |
| 20260906065335 | 82 | 171 | 4.0 | 7.0 | 0.00 | 0.00 | 0.00 | 44 | 1023.3 |
| 20260906064347 | 83 | 181 | 4.0 | 7.0 | 0.00 | 0.00 | 0.00 | 43 | 1023.2 |
| 20260906063341 | 83 | 194 | 6.0 | 9.0 | 0.00 | 0.00 | 0.00 | 42 | 1023.2 |
| 20260906062355 | 83 | 193 | 7.0 | 9.0 | 0.00 | 0.00 | 0.00 | 42 | 1023.2 |
| 20260906061335 | 83 | 197 | 6.0 | 8.0 | 0.00 | 0.00 | 0.00 | 43 | 1023.3 |
| 20260906060348 | 83 | 188 | 5.0 | 9.0 | 0.00 | 0.00 | 0.00 | 42 | 1023.4 |
| 20260906055401 | 84 | 188 | 5.0 | 8.0 | 0.00 | 0.00 | 0.00 | 40 | 1023.3 |
| 20260906054333 | 85 | 199 | 6.0 | 8.0 | 0.00 | 0.00 | 0.00 | 39 | 1023.3 |
| 20260906053347 | 85 | 188 | 5.0 | 8.0 | 0.00 | 0.00 | 0.00 | 39 | 1023.4 |
| 20260906052400 | 85 | 184 | 5.0 | 6.0 | 0.00 | 0.00 | 0.00 | 39 | 1023.3 |
| 20260906051333 | 85 | 176 | 3.0 | 6.0 | 0.00 | 0.00 | 0.00 | 39 | 1023.4 |
| 20260906050411 | 85 | 178 | 4.0 | 5.0 | 0.00 | 0.00 | 0.00 | 38 | 1023.5 |
| 20260906045403 | 86 | 183 | 3.0 | 4.0 | 0.00 | 0.00 | 0.00 | 38 | 1023.4 |
| 20260906044337 | 86 | 160 | 4.0 | 6.0 | 0.00 | 0.00 | 0.00 | 38 | 1023.5 |
| 20260906043331 | 85 | 171 | 3.0 | 4.0 | 0.00 | 0.00 | 0.00 | 38 | 1023.5 |
| 20260906042344 | 86 | 223 | 2.0 | 3.0 | 0.00 | 0.00 | 0.00 | 38 | 1023.5 |
| 20260906041359 | 86 | 223 | 3.0 | 4.0 | 0.00 | 0.00 | 0.00 | 38 | 1023.4 |
| 20260906040330 | 86 | 238 | 1.0 | 4.0 | 0.00 | 0.00 | 0.00 | 37 | 1023.6 |
| 20260906035343 | 86 | 279 | 3.0 | 5.0 | 0.00 | 0.00 | 0.00 | 37 | 1023.5 |
| 20260906034358 | 86 | 258 | 2.0 | 4.0 | 0.00 | 0.00 | 0.00 | 36 | 1023.5 |
| 20260906033329 | 87 | 258 | 2.0 | 6.0 | 0.00 | 0.00 | 0.00 | 36 | 1023.2 |
| 20260906032409 | 87 | 298 | 2.0 | 5.0 | 0.00 | 0.00 | 0.00 | 38 | 1023.2 |
| 20260906031402 | 87 | 281 | 2.0 | 5.0 | 0.00 | 0.00 | 0.00 | 35 | 1023.0 |
| 20260906030333 | 88 | 285 | 3.0 | 7.0 | 0.00 | 0.00 | 0.00 | 34 | 1022.9 |
| 20260906025345 | 88 | 295 | 3.0 | 9.0 | 0.00 | 0.00 | 0.00 | 34 | 1022.8 |
| 20260906024340 | 88 | 313 | 5.0 | 12.0 | 0.00 | 0.00 | 0.00 | 33 | 1022.7 |
| 20260906023339 | 89 | 312 | 7.0 | 11.0 | 0.00 | 0.00 | 0.00 | 33 | 1022.6 |
| 20260906022352 | 89 | 293 | 8.0 | 13.0 | 0.00 | 0.00 | 0.00 | 33 | 1022.4 |
| 20260906021343 | 89 | 314 | 11.0 | 15.0 | 0.00 | 0.00 | 0.00 | 33 | 1022.4 |
| 20260906020334 | 89 | 300 | 8.0 | 14.0 | 0.00 | 0.00 | 0.00 | 32 | 1022.3 |
| 20260906015347 | 90 | 311 | 9.0 | 16.0 | 0.00 | 0.00 | 0.00 | 32 | 1022.3 |
| 20260906014340 | 90 | 302 | 8.0 | 16.0 | 0.00 | 0.00 | 0.00 | 32 | 1022.3 |
| 20260906013334 | 90 | 306 | 11.0 | 17.0 | 0.00 | 0.00 | 0.00 | 32 | 1022.2 |
| 20260906012347 | 90 | 300 | 10.0 | 18.0 | 0.00 | 0.00 | 0.00 | 31 | 1022.0 |
| 20260906011342 | 91 | 306 | 8.0 | 16.0 | 0.00 | 0.00 | 0.00 | 31 | 1022.2 |
| 20260906010354 | 91 | 306 | 12.0 | 17.0 | 0.00 | 0.00 | 0.00 | 30 | 1022.0 |
| 20260906005348 | 92 | 295 | 8.0 | 15.0 | 0.00 | 0.00 | 0.00 | 30 | 1022.0 |
| 20260906004403 | 92 | 269 | 10.0 | 18.0 | 0.00 | 0.00 | 0.00 | 31 | 1022.0 |
| 20260906003336 | 93 | 234 | 9.0 | 17.0 | 0.00 | 0.00 | 0.00 | 31 | 1022.1 |
| 20260906002349 | 93 | 306 | 8.0 | 17.0 | 0.00 | 0.00 | 0.00 | 30 | 1022.0 |
| 20260906001344 | 93 | 289 | 11.0 | 18.0 | 0.00 | 0.00 | 0.00 | 30 | 1022.1 |
| 20260906000334 | 93 | 300 | 9.0 | 17.0 | 0.00 | 0.00 | 0.00 | 30 | 1022.0 |
| 20260905235346 | 93 | 276 | 8.0 | 18.0 | 0.00 | 0.00 | 0.00 | 29 | 1021.9 |
| 20260905234409 | 94 | 284 | 8.0 | 16.0 | 0.00 | 0.00 | 0.00 | 29 | 1022.0 |
| 20260905233343 | 94 | 290 | 10.0 | 17.0 | 0.00 | 0.00 | 0.00 | 29 | 1021.9 |
| 20260905232339 | 94 | 294 | 9.0 | 15.0 | 0.00 | 0.00 | 0.00 | 29 | 1021.9 |
| 20260905231338 | 94 | 304 | 11.0 | 17.0 | 0.00 | 0.00 | 0.00 | 29 | 1022.0 |
| 20260905230331 | 95 | 262 | 7.0 | 16.0 | 0.00 | 0.00 | 0.00 | 28 | 1022.0 |
| 20260905225331 | 95 | 5 | 8.0 | 17.0 | 0.00 | 0.00 | 0.00 | 28 | 1022.1 |
| 20260905224356 | 94 | 286 | 4.0 | 18.0 | 0.00 | 0.00 | 0.00 | 28 | 1022.1 |
| 20260905223333 | 94 | 259 | 7.0 | 17.0 | 0.00 | 0.00 | 0.00 | 29 | 1022.1 |
| 20260905222331 | 95 | 273 | 9.0 | 15.0 | 0.00 | 0.00 | 0.00 | 28 | 1022.4 |
| 20260905221329 | 95 | 300 | 10.0 | 18.0 | 0.00 | 0.00 | 0.00 | 29 | 1022.4 |
| 20260905220338 | 94 | 321 | 3.0 | 18.0 | 0.00 | 0.00 | 0.00 | 29 | 1022.6 |
| 20260905215333 | 96 | 264 | 11.0 | 19.0 | 0.00 | 0.00 | 0.00 | 27 | 1022.7 |
| 20260905214329 | 96 | 288 | 10.0 | 15.0 | 0.00 | 0.00 | 0.00 | 27 | 1022.9 |
| 20260905213348 | 96 | 186 | 5.0 | 12.0 | 0.00 | 0.00 | 0.00 | 26 | 1023.0 |
| 20260905212341 | 95 | 242 | 5.0 | 11.0 | 0.00 | 0.00 | 0.00 | 27 | 1023.1 |
| 20260905211401 | 95 | 341 | 5.0 | 11.0 | 0.00 | 0.00 | 0.00 | 27 | 1023.4 |
| 20260905210331 | 95 | 231 | 1.0 | 15.0 | 0.00 | 0.00 | 0.00 | 28 | 1023.5 |
| 20260905205353 | 95 | 257 | 6.0 | 14.0 | 0.00 | 0.00 | 0.00 | 27 | 1023.8 |
| 20260905204346 | 93 | 290 | 1.0 | 12.0 | 0.00 | 0.00 | 0.00 | 30 | 1023.9 |
| 20260905203336 | 95 | 304 | 5.0 | 12.0 | 0.00 | 0.00 | 0.00 | 29 | 1023.9 |
| 20260905202353 | 95 | 271 | 8.0 | 14.0 | 0.00 | 0.00 | 0.00 | 29 | 1024.0 |
| 20260905201329 | 94 | 222 | 3.0 | 11.0 | 0.00 | 0.00 | 0.00 | 30 | 1024.3 |
| 20260905200342 | 93 | 250 | 3.0 | 14.0 | 0.00 | 0.00 | 0.00 | 30 | 1024.4 |
| 20260905195337 | 94 | 300 | 7.0 | 17.0 | 0.00 | 0.00 | 0.00 | 31 | 1024.5 |
| 20260905194330 | 93 | 246 | 8.0 | 14.0 | 0.00 | 0.00 | 0.00 | 31 | 1024.6 |
| 20260905193329 | 93 | 265 | 6.0 | 15.0 | 0.00 | 0.00 | 0.00 | 32 | 1024.8 |
| 20260905192402 | 91 | 284 | 7.0 | 12.0 | 0.00 | 0.00 | 0.00 | 34 | 1024.8 |
| 20260905191403 | 92 | 316 | 5.0 | 13.0 | 0.00 | 0.00 | 0.00 | 33 | 1025.0 |
| 20260905190333 | 92 | 277 | 3.0 | 10.0 | 0.00 | 0.00 | 0.00 | 33 | 1025.1 |
| 20260905185352 | 91 | 288 | 4.0 | 9.0 | 0.00 | 0.00 | 0.00 | 33 | 1025.3 |
| 20260905184345 | 90 | 294 | 6.0 | 10.0 | 0.00 | 0.00 | 0.00 | 34 | 1025.4 |
| 20260905183339 | 91 | 248 | 5.0 | 12.0 | 0.00 | 0.00 | 0.00 | 34 | 1025.6 |
| 20260905182333 | 91 | 306 | 4.0 | 11.0 | 0.00 | 0.00 | 0.00 | 35 | 1025.7 |
| 20260905181355 | 90 | 288 | 5.0 | 9.0 | 0.00 | 0.00 | 0.00 | 36 | 1025.8 |
| 20260905180344 | 91 | 252 | 7.0 | 10.0 | 0.00 | 0.00 | 0.00 | 36 | 1025.8 |
| 20260905175336 | 89 | 241 | 4.0 | 10.0 | 0.00 | 0.00 | 0.00 | 38 | 1025.7 |
| 20260905174334 | 90 | 345 | 8.0 | 13.0 | 0.00 | 0.00 | 0.00 | 37 | 1025.8 |
| 20260905173349 | 90 | 333 | 3.0 | 9.0 | 0.00 | 0.00 | 0.00 | 36 | 1025.8 |
| 20260905172346 | 89 | 254 | 2.0 | 6.0 | 0.00 | 0.00 | 0.00 | 38 | 1025.8 |
| 20260905171341 | 88 | 286 | 6.0 | 10.0 | 0.00 | 0.00 | 0.00 | 41 | 1025.9 |
| 20260905170333 | 88 | 249 | 2.0 | 6.0 | 0.00 | 0.00 | 0.00 | 41 | 1025.9 |
| 20260905165412 | 87 | 249 | 2.0 | 5.0 | 0.00 | 0.00 | 0.00 | 43 | 1025.9 |
| 20260905164346 | 87 | 315 | 4.0 | 5.0 | 0.00 | 0.00 | 0.00 | 43 | 1026.1 |
| 20260905163340 | 87 | 270 | 4.0 | 7.0 | 0.00 | 0.00 | 0.00 | 43 | 1026.0 |
| 20260905162358 | 86 | 238 | 1.0 | 6.0 | 0.00 | 0.00 | 0.00 | 44 | 1026.1 |